createdAt,value
2022-12-23T00:02:49.489Z,10.71
2022-12-23T00:05:52.557Z,10.76
2022-12-23T00:08:58.340Z,10.88
2022-12-23T00:12:20.622Z,10.82
2022-12-23T00:15:23.175Z,10.89
2022-12-23T00:18:25.708Z,10.85
2022-12-23T00:21:28.241Z,11.09
2022-12-23T00:24:30.862Z,11.01
2022-12-23T00:27:37.732Z,11.10
2022-12-23T00:30:46.835Z,11.03
2022-12-23T00:33:51.749Z,11.11
2022-12-23T00:36:54.573Z,11.08
2022-12-23T00:40:14.820Z,11.06
2022-12-23T00:43:18.983Z,11.19
2022-12-23T00:46:21.573Z,11.35
2022-12-23T00:49:41.699Z,11.35
2022-12-23T00:52:44.211Z,11.46
2022-12-23T00:55:47.741Z,11.57
2022-12-23T00:58:51.705Z,11.54
2022-12-23T01:02:12.085Z,11.77
2022-12-23T01:05:32.516Z,11.72
2022-12-23T01:08:35.183Z,11.74
2022-12-23T01:11:37.769Z,11.83
2022-12-23T01:14:41.912Z,11.72
2022-12-23T01:17:44.485Z,11.94
2022-12-23T01:20:47.035Z,11.84
2022-12-23T01:23:49.566Z,11.98
2022-12-23T01:26:52.104Z,12.06
2022-12-23T01:29:56.372Z,12.13
2022-12-23T01:32:59.161Z,12.20
2022-12-23T01:36:02.888Z,12.16
2022-12-23T01:39:05.495Z,12.01
2022-12-23T01:42:29.874Z,12.07
2022-12-23T01:45:34.808Z,12.30
2022-12-23T01:48:37.700Z,12.41
2022-12-23T01:51:40.298Z,12.51
2022-12-23T01:54:43.376Z,12.58
2022-12-23T01:57:46.209Z,12.64
2022-12-23T02:01:07.639Z,12.64
2022-12-23T02:04:12.773Z,12.51
2022-12-23T02:07:32.824Z,12.62
2022-12-23T02:10:59.043Z,12.65
2022-12-23T02:14:45.549Z,12.69
2022-12-23T02:17:59.276Z,12.66
2022-12-23T02:21:12.114Z,12.83
2022-12-23T02:24:37.625Z,12.63
2022-12-23T02:27:54.090Z,12.77
2022-12-23T02:31:02.366Z,12.80
2022-12-23T02:34:11.279Z,12.89
2022-12-23T02:37:21.086Z,12.86
2022-12-23T02:40:30.545Z,12.75
2022-12-23T02:43:40.406Z,12.61
2022-12-23T02:46:47.250Z,12.46
2022-12-23T02:49:52.849Z,12.41
2022-12-23T02:52:59.034Z,12.39
2022-12-23T02:56:03.398Z,12.28
2022-12-23T02:59:09.408Z,12.45
2022-12-23T03:02:13.600Z,12.41
2022-12-23T03:05:27.519Z,12.42
2022-12-23T03:08:32.938Z,12.38
2022-12-23T03:11:43.167Z,12.49
2022-12-23T03:15:04.535Z,12.49
2022-12-23T03:18:13.229Z,12.40
2022-12-23T03:21:19.041Z,12.42
2022-12-23T03:24:25.718Z,12.52
2022-12-23T03:27:32.402Z,12.40
2022-12-23T03:30:35.447Z,12.51
2022-12-23T03:33:42.129Z,12.54
2022-12-23T03:36:48.000Z,12.55
2022-12-23T03:39:53.842Z,12.57
2022-12-23T03:43:00.519Z,12.60
2022-12-23T03:46:06.460Z,12.41
2022-12-23T03:49:14.202Z,12.45
2022-12-23T03:52:21.541Z,12.44
2022-12-23T03:55:27.325Z,12.32
2022-12-23T03:58:35.361Z,12.24
2022-12-23T04:01:42.456Z,12.23
2022-12-23T04:04:54.419Z,12.19
2022-12-23T04:08:02.461Z,12.11
2022-12-23T04:11:05.362Z,12.14
2022-12-23T04:14:08.336Z,12.00
2022-12-23T04:17:10.839Z,11.93
2022-12-23T04:20:15.160Z,11.93
2022-12-23T04:23:17.699Z,11.84
2022-12-23T04:26:20.453Z,11.74
2022-12-23T04:29:22.984Z,11.82
2022-12-23T04:32:26.689Z,11.98
2022-12-23T04:35:30.573Z,12.18
2022-12-23T04:38:33.168Z,12.21
2022-12-23T04:41:35.734Z,12.23
2022-12-23T04:44:38.269Z,12.21
2022-12-23T04:47:41.495Z,12.25
2022-12-23T04:50:45.381Z,12.38
2022-12-23T04:53:47.903Z,12.45
2022-12-23T04:56:50.751Z,12.45
2022-12-23T04:59:53.289Z,12.45
2022-12-23T05:02:55.989Z,12.39
2022-12-23T05:06:00.161Z,12.41
2022-12-23T05:09:02.806Z,12.45
2022-12-23T05:12:05.475Z,12.41
2022-12-23T05:15:09.207Z,12.43
2022-12-23T05:18:11.872Z,12.53
2022-12-23T05:21:16.443Z,12.51
2022-12-23T05:24:19.182Z,12.57
2022-12-23T05:27:21.828Z,12.78
2022-12-23T05:30:24.403Z,12.93
2022-12-23T05:33:27.232Z,12.98
2022-12-23T05:36:31.154Z,13.02
2022-12-23T05:39:33.860Z,13.17
2022-12-23T05:42:36.560Z,13.22
2022-12-23T05:45:39.281Z,13.27
2022-12-23T05:48:41.893Z,13.23
2022-12-23T05:51:45.781Z,13.20
2022-12-23T05:54:48.412Z,13.12
2022-12-23T05:57:51.072Z,13.12
2022-12-23T06:00:54.412Z,13.13
2022-12-23T06:03:57.305Z,13.20
2022-12-23T06:07:01.470Z,13.14
2022-12-23T06:10:05.550Z,13.06
2022-12-23T06:13:08.196Z,13.00
2022-12-23T06:16:10.789Z,13.06
2022-12-23T06:19:13.362Z,13.04
2022-12-23T06:22:17.724Z,12.96
2022-12-23T06:25:20.323Z,12.87
2022-12-23T06:28:22.946Z,12.79
2022-12-23T06:31:25.576Z,12.69
2022-12-23T06:34:28.162Z,12.65
2022-12-23T06:37:32.122Z,12.70
2022-12-23T06:40:34.739Z,12.70
2022-12-23T06:43:37.275Z,12.66
2022-12-23T06:50:09.002Z,12.63
2022-12-23T06:53:13.257Z,12.64
2022-12-23T06:56:15.952Z,12.66
2022-12-23T06:59:18.654Z,12.60
2022-12-23T07:02:21.794Z,12.54
2022-12-23T07:05:24.886Z,12.51
2022-12-23T07:08:28.869Z,12.56
2022-12-23T07:11:31.619Z,12.57
2022-12-23T07:14:34.205Z,12.52
2022-12-23T07:17:36.744Z,12.52
2022-12-23T07:20:39.400Z,12.51
2022-12-23T07:23:43.476Z,12.59
2022-12-23T07:26:46.161Z,12.70
2022-12-23T07:29:48.734Z,12.77
2022-12-23T07:32:52.133Z,12.91
2022-12-23T07:35:58.826Z,12.92
2022-12-23T07:39:02.841Z,12.84
2022-12-23T07:45:29.228Z,12.75
2022-12-23T07:48:31.808Z,12.80
2022-12-23T07:51:34.294Z,12.87
2022-12-23T07:54:38.261Z,12.92
2022-12-23T07:57:40.855Z,12.97
2022-12-23T08:00:43.558Z,12.88
2022-12-23T08:03:46.242Z,12.89
2022-12-23T08:06:49.001Z,12.97
2022-12-23T08:09:53.132Z,12.99
2022-12-23T08:12:55.732Z,13.10
2022-12-23T08:16:00.408Z,13.19
2022-12-23T08:19:03.013Z,13.26
2022-12-23T08:22:05.735Z,13.33
2022-12-23T08:25:10.802Z,13.41
2022-12-23T08:28:13.468Z,13.45
2022-12-23T08:31:17.546Z,13.62
2022-12-23T08:34:20.310Z,13.54
2022-12-23T08:37:23.077Z,13.53
2022-12-23T08:40:26.915Z,13.45
2022-12-23T08:43:35.624Z,13.40
2022-12-23T08:46:39.172Z,13.31
2022-12-23T08:49:41.947Z,13.27
2022-12-23T08:52:44.457Z,13.20
2022-12-23T08:55:48.524Z,13.17
2022-12-23T08:58:52.701Z,13.24
2022-12-23T09:01:55.372Z,13.36
2022-12-23T09:04:58.084Z,13.51
2022-12-23T09:08:00.969Z,13.57
2022-12-23T09:11:05.084Z,13.66
2022-12-23T09:14:08.505Z,13.72
2022-12-23T09:17:11.702Z,13.77
2022-12-23T09:20:14.357Z,13.80
2022-12-23T09:23:16.929Z,13.94
2022-12-23T09:26:22.444Z,14.00
2022-12-23T09:29:25.016Z,14.06
2022-12-23T09:32:27.619Z,13.99
2022-12-23T09:35:30.384Z,14.05
2022-12-23T09:38:33.249Z,14.10
2022-12-23T09:41:49.383Z,14.14
2022-12-23T09:45:13.901Z,14.08
2022-12-23T09:48:19.223Z,14.19
2022-12-23T09:51:23.387Z,14.14
2022-12-23T09:54:28.899Z,14.17
2022-12-23T09:57:36.481Z,14.18
2022-12-23T10:00:41.639Z,14.31
2022-12-23T10:04:10.562Z,14.15
2022-12-23T10:07:23.122Z,14.25
2022-12-23T10:10:31.927Z,14.23
2022-12-23T10:13:38.962Z,14.08
2022-12-23T10:16:44.519Z,14.22
2022-12-23T10:19:49.117Z,14.29
2022-12-23T10:22:51.912Z,14.39
2022-12-23T10:25:54.535Z,14.54
2022-12-23T10:29:03.208Z,14.66
2022-12-23T10:32:15.099Z,14.81
2022-12-23T10:35:27.299Z,14.83
2022-12-23T10:38:40.201Z,14.95
2022-12-23T10:41:49.710Z,15.10
2022-12-23T10:45:23.300Z,15.23
2022-12-23T10:48:37.312Z,15.44
2022-12-23T10:51:46.612Z,15.29
2022-12-23T10:54:49.441Z,15.22
2022-12-23T10:57:53.570Z,15.20
2022-12-23T11:01:00.540Z,15.11
2022-12-23T11:04:07.776Z,14.93
2022-12-23T11:10:36.456Z,14.81
2022-12-23T11:13:41.058Z,14.89
2022-12-23T11:16:47.740Z,14.75
2022-12-23T11:20:08.362Z,14.67
2022-12-23T11:23:25.615Z,14.75
2022-12-23T11:26:28.186Z,14.84
2022-12-23T11:29:33.295Z,14.95
2022-12-23T11:32:37.430Z,14.78
2022-12-23T11:35:40.541Z,14.77
2022-12-23T11:38:49.449Z,14.82
2022-12-23T11:41:54.593Z,14.94
2022-12-23T11:44:59.788Z,14.92
2022-12-23T11:48:04.439Z,15.01
2022-12-23T11:51:07.247Z,15.13
2022-12-23T11:54:16.840Z,15.12
2022-12-23T11:57:23.394Z,15.25
2022-12-23T12:00:28.252Z,15.28
2022-12-23T12:03:35.369Z,15.15
2022-12-23T12:06:43.997Z,14.96
2022-12-23T12:09:46.911Z,15.02
2022-12-23T12:12:54.847Z,15.11
2022-12-23T12:16:07.153Z,15.16
2022-12-23T12:19:13.959Z,15.14
2022-12-23T12:22:31.770Z,15.05
2022-12-23T12:25:40.013Z,15.02
2022-12-23T12:28:45.090Z,15.03
2022-12-23T12:31:49.729Z,15.06
2022-12-23T12:34:58.217Z,15.06
2022-12-23T12:38:04.144Z,15.08
2022-12-23T12:41:12.330Z,15.13
2022-12-23T12:44:28.127Z,15.06
2022-12-23T12:47:53.480Z,15.10
2022-12-23T12:51:03.025Z,15.21
2022-12-23T12:54:14.068Z,15.28
2022-12-23T12:57:18.804Z,15.01
2022-12-23T13:00:23.391Z,14.95
2022-12-23T13:03:37.657Z,14.85
2022-12-23T13:06:47.579Z,14.70
2022-12-23T13:10:00.156Z,14.91
2022-12-23T13:13:11.308Z,15.06
2022-12-23T13:16:22.166Z,15.16
2022-12-23T13:19:28.159Z,15.19
2022-12-23T13:22:34.487Z,15.21
2022-12-23T13:25:42.447Z,15.30
2022-12-23T13:28:51.008Z,15.22
2022-12-23T13:31:56.983Z,15.22
2022-12-23T13:35:07.768Z,15.25
2022-12-23T13:38:23.958Z,15.16
2022-12-23T13:41:32.438Z,15.13
2022-12-23T13:44:35.800Z,15.01
2022-12-23T13:47:46.763Z,15.12
2022-12-23T13:50:53.105Z,15.14
2022-12-23T13:54:04.845Z,15.16
2022-12-23T13:57:15.286Z,15.14
2022-12-23T14:00:27.249Z,15.10
2022-12-23T14:03:34.715Z,15.00
2022-12-23T14:06:45.139Z,15.03
2022-12-23T14:09:53.478Z,14.69
2022-12-23T14:13:02.733Z,14.52
2022-12-23T14:16:26.763Z,14.25
2022-12-23T14:19:42.343Z,14.19
2022-12-23T14:22:57.134Z,14.05
2022-12-23T14:26:10.781Z,13.85
2022-12-23T14:29:36.721Z,13.97
2022-12-23T14:32:44.571Z,13.86
2022-12-23T14:35:55.917Z,13.96
2022-12-23T14:39:30.634Z,13.84
2022-12-23T14:42:42.114Z,13.94
2022-12-23T14:45:45.241Z,13.91
2022-12-23T14:52:50.304Z,14.08
2022-12-23T14:56:08.628Z,14.07
2022-12-23T14:59:17.882Z,14.11
2022-12-23T15:02:24.067Z,14.16
2022-12-23T15:05:27.428Z,14.12
2022-12-23T15:08:32.894Z,14.20
2022-12-23T15:11:37.062Z,14.11
2022-12-23T15:14:47.351Z,14.26
2022-12-23T15:18:03.024Z,14.04
2022-12-23T15:21:12.488Z,14.06
2022-12-23T15:24:16.955Z,14.01
2022-12-23T15:27:29.596Z,14.00
2022-12-23T15:30:36.360Z,14.03
2022-12-23T15:37:02.643Z,14.10
2022-12-23T15:40:12.637Z,14.05
2022-12-23T15:43:19.705Z,14.09
2022-12-23T15:46:29.809Z,14.08
2022-12-23T15:49:33.177Z,14.15
2022-12-23T15:52:35.913Z,14.21
2022-12-23T15:55:40.526Z,14.19
2022-12-23T15:58:43.723Z,14.23
2022-12-23T16:01:48.017Z,14.26
2022-12-23T16:04:54.685Z,14.29
2022-12-23T16:08:11.086Z,14.38
2022-12-23T16:11:16.196Z,14.42
2022-12-23T16:14:25.967Z,14.47
2022-12-23T16:17:34.790Z,14.42
2022-12-23T16:20:41.857Z,14.57
2022-12-23T16:23:49.420Z,14.75
2022-12-23T16:26:51.953Z,14.75
2022-12-23T16:29:55.327Z,14.94
2022-12-23T16:33:02.095Z,14.96
2022-12-23T16:36:20.031Z,14.98
2022-12-23T16:39:24.006Z,14.94
2022-12-23T16:42:26.670Z,15.03
2022-12-23T16:45:29.558Z,15.02
2022-12-23T16:48:35.829Z,15.12
2022-12-23T16:51:39.194Z,15.11
2022-12-23T16:54:42.520Z,15.06
2022-12-23T16:57:45.847Z,15.01
2022-12-23T17:00:48.727Z,15.06
2022-12-23T17:03:53.169Z,14.91
2022-12-23T17:06:55.830Z,14.92
2022-12-23T17:09:58.387Z,14.93
2022-12-23T17:13:00.943Z,14.94
2022-12-23T17:16:03.579Z,14.88
2022-12-23T17:19:07.498Z,14.99
2022-12-23T17:22:13.500Z,15.03
2022-12-23T17:25:24.501Z,15.06
2022-12-23T17:28:30.993Z,15.08
2022-12-23T17:31:34.831Z,14.97
2022-12-23T17:34:39.103Z,14.96
2022-12-23T17:37:41.904Z,14.88
2022-12-23T17:40:46.504Z,14.87
2022-12-23T17:43:49.094Z,14.86
2022-12-23T17:46:51.749Z,14.96
2022-12-23T17:49:55.689Z,14.91
2022-12-23T17:52:58.315Z,14.95
2022-12-23T17:56:00.926Z,14.97
2022-12-23T17:59:03.476Z,15.02
2022-12-23T18:02:21.955Z,15.08
2022-12-23T18:05:28.276Z,15.16
2022-12-23T18:08:30.972Z,14.74
2022-12-23T18:11:36.770Z,14.38
2022-12-23T18:14:39.462Z,14.19
2022-12-23T18:17:42.038Z,14.07
2022-12-23T18:20:47.896Z,14.13
2022-12-23T18:23:50.900Z,13.84
2022-12-23T18:26:53.667Z,13.65
2022-12-23T18:29:56.328Z,13.80
2022-12-23T18:32:58.893Z,13.70
2022-12-23T18:36:02.945Z,13.79
2022-12-23T18:39:06.087Z,13.57
2022-12-23T18:42:12.147Z,13.63
2022-12-23T18:45:33.669Z,13.49
2022-12-23T18:48:36.811Z,13.48
2022-12-23T18:51:40.840Z,13.34
2022-12-23T18:54:43.343Z,13.30
2022-12-23T18:57:45.979Z,13.19
2022-12-23T19:00:48.942Z,13.23
2022-12-23T19:03:51.415Z,13.25
2022-12-23T19:06:55.624Z,13.18
2022-12-23T19:09:58.193Z,13.26
2022-12-23T19:13:01.595Z,13.19
2022-12-23T19:16:04.525Z,13.26
2022-12-23T19:19:07.358Z,13.25
2022-12-23T19:22:11.430Z,13.29
2022-12-23T19:25:15.883Z,13.33
2022-12-23T19:28:18.517Z,13.29
2022-12-23T19:31:23.062Z,13.22
2022-12-23T19:34:25.899Z,13.24
2022-12-23T19:37:30.465Z,13.14
2022-12-23T19:40:33.261Z,13.18
2022-12-23T19:43:36.423Z,13.25
2022-12-23T19:46:39.097Z,13.29
2022-12-23T19:49:41.703Z,13.32
2022-12-23T19:52:45.653Z,13.34
2022-12-23T19:55:59.014Z,13.24
2022-12-23T19:59:01.976Z,13.19
2022-12-23T20:02:04.588Z,13.29
2022-12-23T20:05:09.631Z,13.37
2022-12-23T20:08:13.528Z,13.32
2022-12-23T20:11:18.701Z,13.28
2022-12-23T20:14:21.689Z,13.29
2022-12-23T20:17:24.351Z,13.36
2022-12-23T20:20:26.986Z,13.39
2022-12-23T20:23:32.025Z,13.44
2022-12-23T20:26:35.080Z,13.44
2022-12-23T20:29:37.639Z,13.44
2022-12-23T20:32:40.338Z,13.25
2022-12-23T20:35:42.861Z,13.01
2022-12-23T20:38:48.408Z,13.13
2022-12-23T20:41:51.213Z,12.85
2022-12-23T20:44:54.071Z,13.00
2022-12-23T20:47:56.669Z,12.88
2022-12-23T20:51:04.734Z,12.72
2022-12-23T20:54:09.200Z,12.69
2022-12-23T20:57:11.765Z,12.58
2022-12-23T21:00:15.490Z,12.51
2022-12-23T21:03:18.241Z,12.54
2022-12-23T21:06:21.310Z,12.50
2022-12-23T21:09:25.365Z,12.37
2022-12-23T21:12:27.981Z,12.33
2022-12-23T21:15:32.527Z,12.31
2022-12-23T21:18:35.435Z,12.34
2022-12-23T21:21:38.070Z,12.37
2022-12-23T21:24:42.084Z,12.37
2022-12-23T21:27:44.757Z,12.41
2022-12-23T21:30:47.266Z,12.30
2022-12-23T21:33:51.409Z,12.25
2022-12-23T21:36:54.149Z,12.29
2022-12-23T21:39:58.114Z,12.40
2022-12-23T21:43:05.343Z,12.65
2022-12-23T21:46:12.347Z,12.63
2022-12-23T21:49:15.289Z,12.60
2022-12-23T21:52:18.002Z,12.55
2022-12-23T21:55:21.896Z,12.53
2022-12-23T21:58:24.458Z,12.51
2022-12-23T22:01:27.870Z,12.57
2022-12-23T22:04:30.502Z,12.58
2022-12-23T22:07:33.069Z,12.56
2022-12-23T22:10:39.292Z,12.55
2022-12-23T22:13:42.525Z,12.63
2022-12-23T22:16:45.151Z,12.70
2022-12-23T22:19:47.699Z,12.63
2022-12-23T22:22:50.421Z,12.73
2022-12-23T22:25:55.310Z,12.70
2022-12-23T22:28:59.173Z,12.52
2022-12-23T22:32:01.782Z,12.47
2022-12-23T22:35:04.530Z,12.56
2022-12-23T22:38:07.024Z,12.70
2022-12-23T22:41:11.601Z,12.59
2022-12-23T22:44:15.039Z,12.55
2022-12-23T22:47:22.231Z,12.63
2022-12-23T22:50:24.815Z,12.69
2022-12-23T22:53:29.829Z,12.88
2022-12-23T22:56:34.171Z,12.96
2022-12-23T22:59:37.298Z,12.93
2022-12-23T23:02:39.841Z,12.87
2022-12-23T23:05:42.561Z,12.80
2022-12-23T23:08:45.365Z,12.79
2022-12-23T23:11:49.910Z,12.77
2022-12-23T23:14:55.685Z,12.70
2022-12-23T23:17:58.185Z,12.57
2022-12-23T23:21:00.998Z,12.54
2022-12-23T23:24:03.820Z,12.51
2022-12-23T23:27:07.809Z,12.40
2022-12-23T23:30:11.373Z,12.31
2022-12-23T23:33:13.727Z,12.31
2022-12-23T23:36:17.734Z,12.25
2022-12-23T23:39:20.482Z,12.14
2022-12-23T23:42:24.368Z,12.10
2022-12-23T23:45:27.679Z,12.00
2022-12-23T23:48:30.227Z,12.07
2022-12-23T23:51:32.825Z,11.97
2022-12-23T23:54:35.602Z,11.88
2022-12-23T23:57:39.530Z,12.10
